Time;durP1;ratioP1;P1;durP2;ratioP2;P2;SDS_P1;SDS_P2;PMS_P1;PMS_P2;Temp;Humidity;BMP_temperature;BMP_pressure;BME280_temperature;BME280_humidity;BME280_pressure;Samples;Min_cycle;Max_cycle;Signal;HPM_P1;HPM_P2
2023/08/30 00:00:34;;;;;;;;;7.00;7.00;;;;;18.16;60.00;100705.56;5057834;28;45290;-46
2023/08/30 00:02:59;;;;;;;;;5.00;5.00;;;;;18.15;60.26;100701.19;5057360;28;46490;-46
2023/08/30 00:05:27;;;;;;;;;5.33;4.00;;;;;18.05;60.03;100681.88;5057423;28;45859;-45
2023/08/30 00:07:53;;;;;;;;;6.00;5.00;;;;;18.07;60.13;100693.25;5057375;28;45403;-46
2023/08/30 00:10:18;;;;;;;;;5.00;5.00;;;;;18.11;60.11;100696.41;5057707;28;45347;-46
2023/08/30 00:12:44;;;;;;;;;7.00;4.33;;;;;18.09;60.37;100699.28;5057456;28;45506;-46
2023/08/30 00:15:09;;;;;;;;;5.00;5.00;;;;;18.08;60.24;100694.94;5056190;28;45315;-45
2023/08/30 00:17:34;;;;;;;;;7.00;6.33;;;;;18.03;60.17;100691.16;5057308;28;45385;-42
2023/08/30 00:20:00;;;;;;;;;6.00;5.00;;;;;18.04;60.39;100692.84;5057599;28;45326;-44
2023/08/30 00:22:27;;;;;;;;;7.67;4.00;;;;;18.03;60.37;100686.59;5057197;28;46057;-43
2023/08/30 00:24:53;;;;;;;;;4.00;4.00;;;;;18.02;60.56;100689.50;5057398;28;45303;-43
2023/08/30 00:27:20;;;;;;;;;8.67;5.67;;;;;18.00;60.57;100686.19;5057228;28;45471;-44
2023/08/30 00:29:45;;;;;;;;;5.00;5.00;;;;;17.99;60.44;100684.50;5057367;28;45497;-43
2023/08/30 00:32:11;;;;;;;;;9.33;7.33;;;;;17.95;60.39;100687.63;5057209;28;46111;-47
2023/08/30 00:34:36;;;;;;;;;5.33;5.33;;;;;17.92;60.71;100673.72;5057032;28;45394;-46
2023/08/30 00:37:02;;;;;;;;;7.00;6.67;;;;;17.90;60.76;100681.13;5056689;28;45392;-45
2023/08/30 00:39:29;;;;;;;;;6.00;4.00;;;;;17.87;60.63;100676.16;5057048;28;45305;-46
2023/08/30 00:41:54;;;;;;;;;6.67;6.67;;;;;17.85;60.67;100672.81;5056552;28;46051;-45
2023/08/30 00:44:19;;;;;;;;;7.00;7.00;;;;;17.74;60.57;100654.50;5056882;28;45423;-47
2023/08/30 00:46:45;;;;;;;;;6.00;4.00;;;;;17.75;60.65;100657.03;5056646;28;45561;-46
2023/08/30 00:49:11;;;;;;;;;6.67;4.33;;;;;17.81;60.90;100671.56;5057235;28;45335;-45
2023/08/30 00:51:36;;;;;;;;;6.67;5.00;;;;;17.73;61.31;100647.44;5056388;28;45983;-47
2023/08/30 00:54:02;;;;;;;;;10.67;6.33;;;;;17.78;61.08;100656.66;5056252;28;45828;-46
2023/08/30 00:56:28;;;;;;;;;4.33;4.00;;;;;17.71;60.83;100643.09;5056808;28;45419;-46
2023/08/30 00:58:55;;;;;;;;;5.33;5.33;;;;;17.75;60.48;100656.22;5056697;28;45474;-45
2023/08/30 01:01:21;;;;;;;;;8.00;5.00;;;;;17.76;60.67;100650.63;5056599;28;46388;-43
2023/08/30 01:03:46;;;;;;;;;5.00;5.00;;;;;17.78;60.99;100645.03;5056333;28;45336;-46
2023/08/30 01:06:13;;;;;;;;;4.67;4.33;;;;;17.76;61.38;100636.34;5056597;28;45342;-43
2023/08/30 01:08:40;;;;;;;;;6.33;6.00;;;;;17.87;60.96;100647.41;5056595;28;45376;-46
2023/08/30 01:11:14;;;;;;;;;5.67;4.33;;;;;17.92;60.44;100642.25;5056288;28;46453;-49
2023/08/30 01:13:50;;;;;;;;;6.33;5.00;;;;;17.99;60.61;100636.06;5056456;28;45328;-44
2023/08/30 01:16:20;;;;;;;;;5.67;5.67;;;;;18.06;60.51;100645.84;5056460;28;45212;-45
2023/08/30 01:18:46;;;;;;;;;5.33;5.33;;;;;18.11;60.29;100639.88;5056505;28;46678;-44
2023/08/30 01:21:26;;;;;;;;;3.67;3.67;;;;;18.16;59.97;100638.25;5056299;28;45458;-45
2023/08/30 01:24:02;;;;;;;;;8.33;5.00;;;;;18.19;59.72;100637.84;5056265;28;45376;-46
2023/08/30 01:26:44;;;;;;;;;15.00;10.33;;;;;18.22;59.76;100623.16;5056442;28;45184;-46
2023/08/30 01:29:13;;;;;;;;;11.33;8.33;;;;;18.28;59.52;100619.66;5056422;28;45403;-45
2023/08/30 01:31:41;;;;;;;;;8.33;6.00;;;;;18.22;59.62;100606.19;5056061;28;45348;-46
2023/08/30 01:34:06;;;;;;;;;6.67;5.00;;;;;18.29;59.54;100620.50;5056036;28;45445;-46
2023/08/30 01:36:32;;;;;;;;;6.00;6.00;;;;;18.23;59.05;100608.66;5056234;28;45435;-46
2023/08/30 01:38:59;;;;;;;;;7.67;4.00;;;;;18.26;59.06;100610.97;5056596;28;45319;-45
2023/08/30 01:41:27;;;;;;;;;4.67;4.67;;;;;18.31;58.82;100618.44;5056461;28;46532;-45
2023/08/30 01:43:55;;;;;;;;;5.33;3.00;;;;;18.29;58.77;100615.94;5056395;28;45459;-45
2023/08/30 01:46:21;;;;;;;;;7.00;4.00;;;;;18.25;58.60;100603.91;5056200;28;45415;-46
2023/08/30 01:48:48;;;;;;;;;4.67;4.00;;;;;18.32;58.67;100618.22;5056277;28;45367;-44
2023/08/30 01:51:16;;;;;;;;;4.33;4.00;;;;;18.32;58.94;100614.69;5055849;28;46269;-47
2023/08/30 01:53:46;;;;;;;;;7.00;4.00;;;;;18.34;58.74;100620.72;5055510;28;45323;-44
2023/08/30 01:56:12;;;;;;;;;6.00;4.67;;;;;18.25;58.93;100603.09;5056216;28;45364;-45
2023/08/30 01:58:37;;;;;;;;;6.33;6.00;;;;;18.28;58.97;100608.88;5055832;28;45369;-42
2023/08/30 02:01:02;;;;;;;;;5.00;5.00;;;;;18.25;59.22;100601.22;5055847;28;45434;-45
2023/08/30 02:03:28;;;;;;;;;5.33;5.00;;;;;18.18;59.31;100597.66;5055561;28;45383;-45
2023/08/30 02:06:08;;;;;;;;;9.67;6.67;;;;;18.20;59.33;100601.84;5057916;28;45345;-46
2023/08/30 02:08:52;;;;;;;;;6.00;4.67;;;;;18.22;59.28;100598.94;5059526;28;45272;-45
2023/08/30 02:11:23;;;;;;;;;5.00;5.00;;;;;18.21;59.25;100594.56;5058607;28;46608;-44
2023/08/30 02:13:50;;;;;;;;;7.00;4.33;;;;;18.19;59.58;100597.44;5059002;28;45386;-46
2023/08/30 02:16:17;;;;;;;;;7.25;5.00;;;;;18.20;59.45;100600.97;5059086;28;45297;-46
2023/08/30 02:18:44;;;;;;;;;6.75;6.75;;;;;18.19;59.57;100594.75;5059444;28;45360;-46
2023/08/30 02:21:10;;;;;;;;;5.75;4.00;;;;;18.20;59.67;100599.13;5059043;28;46103;-47
2023/08/30 02:23:35;;;;;;;;;5.00;4.25;;;;;18.20;59.50;100599.13;5058966;28;45336;-47
2023/08/30 02:26:03;;;;;;;;;5.00;4.25;;;;;18.21;59.34;100602.66;5059008;28;45370;-45
2023/08/30 02:28:28;;;;;;;;;5.67;5.00;;;;;18.20;59.43;100604.53;5059231;28;45391;-42
2023/08/30 02:30:54;;;;;;;;;4.00;4.00;;;;;17.99;59.59;100564.22;5058818;28;46310;-50
2023/08/30 02:33:20;;;;;;;;;7.00;5.33;;;;;18.12;59.46;100593.91;5058850;28;45942;-44
2023/08/30 02:35:45;;;;;;;;;4.25;4.00;;;;;18.17;59.52;100596.84;5058905;28;45473;-46
2023/08/30 02:38:10;;;;;;;;;5.00;5.00;;;;;18.16;59.64;100599.72;5059212;28;45391;-46
2023/08/30 02:40:36;;;;;;;;;4.00;3.00;;;;;18.11;59.71;100586.84;5058578;28;45642;-45
2023/08/30 02:43:01;;;;;;;;;3.50;1.00;;;;;18.13;59.54;100590.19;5058561;28;48095;-43
2023/08/30 02:45:26;;;;;;;;;4.00;4.00;;;;;18.17;59.26;100591.44;5058785;28;45222;-45
2023/08/30 02:47:56;;;;;;;;;5.25;4.00;;;;;18.15;59.17;100588.13;5058950;28;45440;-46
2023/08/30 02:50:22;;;;;;;;;4.75;3.00;;;;;18.13;59.08;100592.06;5058370;28;47261;-46
2023/08/30 02:52:47;;;;;;;;;7.00;3.00;;;;;18.10;58.83;100592.44;5058439;28;45498;-45
2023/08/30 02:55:13;;;;;;;;;2.00;2.00;;;;;18.06;59.10;100585.81;5058685;28;45379;-46
2023/08/30 02:57:38;;;;;;;;;5.00;4.50;;;;;18.06;59.18;100589.31;5058707;28;45374;-42
2023/08/30 03:00:05;;;;;;;;;4.00;4.00;;;;;18.05;58.95;100586.84;5058284;28;47078;-48
2023/08/30 03:02:32;;;;;;;;;5.67;4.00;;;;;17.99;59.20;100579.53;5058397;28;45368;-44
2023/08/30 03:04:59;;;;;;;;;3.00;3.00;;;;;18.05;58.84;100584.16;5058297;28;45361;-42
2023/08/30 03:07:24;;;;;;;;;4.67;4.67;;;;;18.07;59.02;100587.44;5058561;28;45391;-45
2023/08/30 03:09:53;;;;;;;;;4.50;3.75;;;;;18.02;58.84;100585.38;5058119;28;46106;-45
2023/08/30 03:12:18;;;;;;;;;3.75;3.75;;;;;18.00;59.04;100584.75;5058206;28;45439;-46
2023/08/30 03:14:43;;;;;;;;;2.75;2.00;;;;;18.02;59.24;100592.59;5058532;28;45565;-46
2023/08/30 03:17:09;;;;;;;;;4.33;4.00;;;;;18.04;59.19;100590.56;5058297;28;45515;-45
2023/08/30 03:19:34;;;;;;;;;3.00;3.00;;;;;18.02;58.83;100587.22;5058070;28;46872;-43
2023/08/30 03:22:00;;;;;;;;;3.50;3.50;;;;;18.01;59.22;100586.41;5058094;28;45333;-45
2023/08/30 03:24:25;;;;;;;;;3.00;3.00;;;;;18.03;58.96;100589.72;5058114;28;45349;-45
2023/08/30 03:26:51;;;;;;;;;4.50;3.50;;;;;18.01;59.36;100586.41;5058471;28;45243;-48
2023/08/30 03:29:16;;;;;;;;;4.50;4.50;;;;;18.01;59.44;100586.41;5056398;28;47515;-45
2023/08/30 03:31:43;;;;;;;;;4.25;3.00;;;;;17.95;59.54;100574.56;5058042;28;45389;-45
2023/08/30 03:34:08;;;;;;;;;4.33;4.33;;;;;18.04;59.74;100590.56;5057947;28;45394;-45
2023/08/30 03:36:34;;;;;;;;;3.00;3.00;;;;;18.05;59.69;100584.97;5058064;28;45413;-47
2023/08/30 03:38:59;;;;;;;;;3.00;3.00;;;;;18.06;60.07;100577.72;5057628;28;45495;-44
2023/08/30 03:41:24;;;;;;;;;7.67;4.00;;;;;18.02;60.15;100571.91;5057713;28;45381;-44
2023/08/30 03:43:49;;;;;;;;;5.33;3.33;;;;;18.06;60.37;100573.16;5058108;28;45385;-44
2023/08/30 03:46:15;;;;;;;;;4.33;3.67;;;;;18.06;60.53;100575.03;5058045;28;45323;-46
2023/08/30 03:48:40;;;;;;;;;4.00;4.00;;;;;18.02;60.48;100577.28;5057724;28;47553;-45
2023/08/30 03:51:05;;;;;;;;;3.67;3.67;;;;;17.95;60.83;100565.69;5057742;28;45481;-45
2023/08/30 03:53:31;;;;;;;;;6.00;5.75;;;;;18.03;60.73;100572.72;5056414;28;45798;-45
2023/08/30 03:55:56;;;;;;;;;3.00;3.00;;;;;18.06;60.82;100575.03;5057792;28;45672;-45
2023/08/30 03:58:22;;;;;;;;;4.50;3.00;;;;;18.09;60.89;100571.94;5057674;28;45480;-43
2023/08/30 04:00:47;;;;;;;;;4.75;3.00;;;;;18.10;61.08;100573.59;5057595;28;45442;-44
2023/08/30 04:03:15;;;;;;;;;5.50;3.25;;;;;18.10;61.10;100569.03;5057935;28;45528;-46
2023/08/30 04:05:41;;;;;;;;;3.00;3.00;;;;;18.05;61.22;100570.69;5057791;28;45478;-43
2023/08/30 04:08:07;;;;;;;;;7.00;3.00;;;;;18.06;61.30;100567.78;5057148;28;46158;-44
2023/08/30 04:10:40;;;;;;;;;5.75;3.25;;;;;18.07;60.87;100558.66;5057311;28;45377;-46
2023/08/30 04:13:07;;;;;;;;;3.00;3.00;;;;;18.07;61.56;100569.44;5057265;28;45244;-50
2023/08/30 04:15:36;;;;;;;;;2.33;2.33;;;;;18.08;61.37;100565.75;5057702;28;45419;-43
2023/08/30 04:18:02;;;;;;;;;2.75;2.75;;;;;18.07;61.79;100563.22;5056959;28;45486;-45
2023/08/30 04:20:27;;;;;;;;;2.25;2.25;;;;;18.08;61.97;100565.75;5057172;28;45409;-45
2023/08/30 04:22:54;;;;;;;;;5.00;3.67;;;;;18.02;61.93;100566.53;5057409;28;45335;-41
2023/08/30 04:25:20;;;;;;;;;4.25;3.75;;;;;17.99;62.46;100564.22;5057303;28;45447;-46
2023/08/30 04:27:45;;;;;;;;;5.33;5.00;;;;;17.95;62.68;100552.22;5056369;28;45484;-45
2023/08/30 04:30:11;;;;;;;;;4.00;4.00;;;;;17.98;62.78;100567.13;5057167;28;45423;-46
2023/08/30 04:32:37;;;;;;;;;3.33;3.33;;;;;17.88;62.50;100552.19;5056963;28;45387;-47
2023/08/30 04:35:03;;;;;;;;;4.00;2.33;;;;;17.89;62.65;100561.06;5057030;28;45412;-45
2023/08/30 04:37:31;;;;;;;;;5.00;3.00;;;;;17.82;63.33;100554.81;5056308;28;45270;-45
2023/08/30 04:39:57;;;;;;;;;5.33;5.00;;;;;17.80;63.70;100546.97;5056538;28;45600;-46
2023/08/30 04:42:22;;;;;;;;;4.00;3.00;;;;;17.78;63.93;100540.97;5056851;28;45446;-46
2023/08/30 04:44:47;;;;;;;;;6.33;5.33;;;;;17.75;64.07;100545.91;5056671;28;45412;-46
2023/08/30 04:47:13;;;;;;;;;4.67;4.33;;;;;17.70;64.33;100538.41;5056920;28;45375;-46
2023/08/30 04:49:38;;;;;;;;;3.00;3.00;;;;;17.65;64.47;100530.06;5056665;28;45445;-46
2023/08/30 04:52:04;;;;;;;;;4.00;4.00;;;;;17.64;64.76;100536.47;5056830;28;45485;-45
2023/08/30 04:54:29;;;;;;;;;6.00;3.00;;;;;17.66;64.87;100535.25;5056756;28;45463;-47
2023/08/30 04:56:54;;;;;;;;;4.67;3.00;;;;;17.59;65.12;100522.78;5056596;28;46437;-45
2023/08/30 04:59:20;;;;;;;;;6.00;4.00;;;;;17.70;64.54;100535.69;5056392;28;45321;-47
2023/08/30 05:01:45;;;;;;;;;4.00;4.00;;;;;17.68;65.05;100535.06;5056662;28;45317;-46
2023/08/30 05:04:11;;;;;;;;;7.00;4.00;;;;;17.67;65.31;100542.28;5056857;28;45351;-42
2023/08/30 05:06:36;;;;;;;;;5.67;4.00;;;;;17.66;65.72;100529.88;5056304;28;47202;-42
2023/08/30 05:09:02;;;;;;;;;4.00;2.33;;;;;17.69;65.57;100528.63;5056255;28;45317;-46
2023/08/30 05:11:27;;;;;;;;;6.67;5.00;;;;;17.59;65.38;100520.94;5056520;28;45250;-45
2023/08/30 05:13:53;;;;;;;;;6.00;5.00;;;;;17.64;65.65;100529.25;5056562;28;45718;-45
2023/08/30 05:16:19;;;;;;;;;6.33;5.33;;;;;17.61;64.35;100523.41;5056115;28;46420;-45
2023/08/30 05:18:44;;;;;;;;;6.67;3.00;;;;;17.58;65.22;100518.47;5056033;28;45335;-46
2023/08/30 05:21:09;;;;;;;;;4.33;3.00;;;;;17.59;65.92;100510.19;5056325;28;45380;-43
2023/08/30 05:23:35;;;;;;;;;5.00;4.00;;;;;17.60;66.00;100519.91;5056602;28;45277;-44
2023/08/30 05:26:00;;;;;;;;;7.00;4.00;;;;;17.54;64.75;100509.94;5054811;28;45247;-45
2023/08/30 05:28:25;;;;;;;;;5.67;4.33;;;;;17.56;65.26;100524.00;5054949;28;45393;-45
2023/08/30 05:30:51;;;;;;;;;9.33;5.67;;;;;17.54;66.29;100509.13;5056614;28;45508;-44
2023/08/30 05:33:16;;;;;;;;;8.67;4.67;;;;;17.59;66.19;100517.41;5056440;28;45392;-46
2023/08/30 05:35:41;;;;;;;;;5.00;4.00;;;;;17.63;65.16;100514.13;5056087;28;45444;-46
2023/08/30 05:38:07;;;;;;;;;5.67;5.00;;;;;17.65;65.78;100524.69;5055846;28;46788;-42
2023/08/30 05:40:32;;;;;;;;;4.67;4.00;;;;;17.64;65.70;100520.34;5054876;28;45311;-47
2023/08/30 05:42:57;;;;;;;;;5.00;5.00;;;;;17.66;65.63;100527.19;5056254;28;45320;-46
2023/08/30 05:45:23;;;;;;;;;4.00;4.00;;;;;17.71;65.62;100532.81;5055865;28;46180;-46
2023/08/30 05:47:48;;;;;;;;;5.33;4.00;;;;;17.74;65.82;100538.81;5056108;28;45410;-46
2023/08/30 05:50:13;;;;;;;;;5.33;3.00;;;;;17.76;65.38;100534.94;5054760;28;45468;-43
2023/08/30 05:52:41;;;;;;;;;7.67;4.33;;;;;17.76;66.29;100534.94;5055886;28;45336;-45
2023/08/30 05:55:08;;;;;;;;;7.00;5.33;;;;;17.73;66.42;100523.69;5055678;28;46218;-48
2023/08/30 05:57:33;;;;;;;;;7.00;5.33;;;;;17.77;66.44;100525.00;5055861;28;45438;-44
2023/08/30 05:59:59;;;;;;;;;5.67;5.00;;;;;17.77;66.66;100530.38;5055931;28;45313;-46
2023/08/30 06:02:25;;;;;;;;;5.67;4.67;;;;;17.77;66.57;100536.59;5055889;28;45347;-46
2023/08/30 06:04:50;;;;;;;;;5.00;3.00;;;;;17.82;66.58;100544.06;5055542;28;46598;-46
2023/08/30 06:07:15;;;;;;;;;8.67;5.67;;;;;17.87;66.42;100542.44;5055869;28;45363;-42
2023/08/30 06:09:42;;;;;;;;;5.33;4.00;;;;;17.88;66.19;100545.97;5054261;28;45476;-46
2023/08/30 06:12:08;;;;;;;;;6.00;4.67;;;;;17.86;66.05;100540.75;5055819;28;45459;-46
2023/08/30 06:14:33;;;;;;;;;6.00;5.67;;;;;17.90;66.19;100550.09;5054682;28;46176;-46
2023/08/30 06:16:58;;;;;;;;;5.33;5.33;;;;;17.87;65.97;100536.25;5055275;28;48269;-46
2023/08/30 06:19:23;;;;;;;;;6.67;4.00;;;;;17.92;66.51;100548.06;5055752;28;45381;-45
2023/08/30 06:21:49;;;;;;;;;5.67;5.67;;;;;17.92;67.15;100550.75;5055846;28;45467;-45
2023/08/30 06:24:14;;;;;;;;;6.00;5.33;;;;;17.93;67.04;100549.72;5055190;28;46315;-47
2023/08/30 06:26:39;;;;;;;;;5.00;4.67;;;;;17.94;66.58;100537.91;5055396;28;45327;-46
2023/08/30 06:29:05;;;;;;;;;5.33;5.00;;;;;17.94;66.94;100537.91;5054117;28;45421;-44
2023/08/30 06:31:32;;;;;;;;;7.00;3.00;;;;;18.02;67.22;100549.53;5055890;28;45410;-42
2023/08/30 06:33:57;;;;;;;;;7.00;5.00;;;;;18.04;66.92;100548.31;5055328;28;45621;-45
2023/08/30 06:36:23;;;;;;;;;9.00;6.00;;;;;18.03;66.87;100540.44;5036972;28;45785;-45
2023/08/30 06:38:48;;;;;;;;;8.33;5.00;;;;;18.08;66.72;100549.59;5055342;28;45237;-46
2023/08/30 06:41:14;;;;;;;;;9.33;6.33;;;;;18.13;66.24;100549.81;5055575;28;45514;-43
2023/08/30 06:43:39;;;;;;;;;8.00;8.00;;;;;18.17;66.69;100548.38;5055032;28;45653;-44
2023/08/30 06:46:04;;;;;;;;;4.67;4.67;;;;;18.22;66.17;100546.94;5055243;28;45244;-44
2023/08/30 06:48:30;;;;;;;;;7.33;4.67;;;;;18.31;65.42;100548.41;5055373;28;45321;-45
2023/08/30 06:50:59;;;;;;;;;4.00;4.00;;;;;18.45;65.38;100556.31;5054944;28;45278;-46
2023/08/30 06:53:26;;;;;;;;;6.67;5.33;;;;;18.53;65.02;100544.53;5058396;28;45697;-44
2023/08/30 06:55:58;;;;;;;;;5.00;5.00;;;;;18.64;64.83;100548.50;5058575;28;45280;-45
2023/08/30 06:58:23;;;;;;;;;5.67;4.33;;;;;18.65;64.94;100548.28;5058479;28;45550;-46
2023/08/30 07:00:49;;;;;;;;;4.75;3.00;;;;;18.72;64.57;100545.66;5058722;28;45549;-44
2023/08/30 07:03:14;;;;;;;;;3.50;3.50;;;;;18.69;64.82;100549.59;5058463;28;45910;-45
2023/08/30 07:05:40;;;;;;;;;6.00;5.00;;;;;18.79;64.37;100553.75;5057081;28;46036;-45
2023/08/30 07:08:05;;;;;;;;;4.50;4.50;;;;;18.80;64.14;100556.25;5058953;28;45344;-47
2023/08/30 07:10:31;;;;;;;;;6.00;3.00;;;;;18.80;63.86;100553.56;5058404;28;45429;-46
2023/08/30 07:12:56;;;;;;;;;4.00;4.00;;;;;18.79;63.92;100551.88;5058618;28;46545;-44
2023/08/30 07:15:21;;;;;;;;;5.00;3.33;;;;;18.86;63.83;100560.81;5058587;28;45372;-48
2023/08/30 07:17:47;;;;;;;;;7.67;6.00;;;;;18.91;63.51;100557.50;5058368;28;45374;-44
2023/08/30 07:20:12;;;;;;;;;5.00;4.00;;;;;18.91;63.48;100552.09;5058492;28;45466;-44
2023/08/30 07:22:37;;;;;;;;;3.00;3.00;;;;;18.95;63.38;100556.88;5057531;28;45390;-42
2023/08/30 07:25:03;;;;;;;;;3.25;3.25;;;;;18.93;63.42;100552.75;5057918;28;45431;-44
2023/08/30 07:27:28;;;;;;;;;6.33;5.00;;;;;18.96;63.45;100557.69;5058242;28;45426;-43
2023/08/30 07:29:54;;;;;;;;;2.00;1.50;;;;;18.98;63.21;100554.81;5058336;28;45440;-44
2023/08/30 07:32:19;;;;;;;;;1.25;1.25;;;;;18.95;62.94;100553.34;5057850;28;46237;-45
2023/08/30 07:34:44;;;;;;;;;4.00;4.00;;;;;18.91;63.09;100546.72;5057663;28;50216;-46
2023/08/30 07:37:18;;;;;;;;;4.50;3.00;;;;;19.00;62.91;100548.16;5057833;28;45428;-46
2023/08/30 07:39:44;;;;;;;;;2.00;2.00;;;;;19.14;62.59;100539.06;5058266;28;45733;-46
2023/08/30 07:42:09;;;;;;;;;3.25;3.00;;;;;19.34;61.70;100548.97;5057624;28;46181;-46
2023/08/30 07:44:34;;;;;;;;;2.25;2.25;;;;;19.53;61.26;100545.44;5057639;28;45316;-44
2023/08/30 07:47:00;;;;;;;;;5.25;2.00;;;;;19.82;61.08;100540.63;5057592;28;45811;-41
2023/08/30 07:49:25;;;;;;;;;2.25;2.25;;;;;20.01;59.54;100553.22;5058027;28;45422;-44
2023/08/30 07:51:50;;;;;;;;;6.75;5.00;;;;;20.27;59.27;100543.34;5057545;28;45450;-45
2023/08/30 07:54:16;;;;;;;;;3.00;2.50;;;;;20.59;58.64;100546.97;5057896;28;45858;-43
2023/08/30 07:56:41;;;;;;;;;4.50;2.00;;;;;20.98;57.56;100545.84;5057654;28;45331;-44
2023/08/30 07:59:06;;;;;;;;;3.75;2.00;;;;;21.34;56.57;100545.16;5057631;28;45411;-45
2023/08/30 08:01:31;;;;;;;;;4.00;2.00;;;;;21.75;55.41;100541.03;5057070;28;46273;-47
2023/08/30 08:03:57;;;;;;;;;2.00;2.00;;;;;22.72;53.30;100535.63;5056423;28;46590;-43
2023/08/30 08:06:22;;;;;;;;;3.75;3.75;;;;;22.49;53.53;100546.38;5057493;28;45408;-48
2023/08/30 08:08:47;;;;;;;;;3.50;2.00;;;;;22.22;53.10;100540.50;5057512;28;45366;-47
2023/08/30 08:11:13;;;;;;;;;3.25;2.50;;;;;22.07;54.23;100538.13;5056951;28;46507;-46
2023/08/30 08:13:38;;;;;;;;;4.25;2.00;;;;;22.05;53.43;100535.66;5057034;28;45282;-46
2023/08/30 08:16:04;;;;;;;;;3.00;3.00;;;;;22.11;53.08;100545.59;5056992;28;45398;-44
2023/08/30 08:18:29;;;;;;;;;3.25;2.75;;;;;22.30;52.50;100542.91;5057236;28;45400;-42
2023/08/30 08:20:54;;;;;;;;;4.75;3.00;;;;;22.64;51.94;100542.19;5056988;28;46787;-44
2023/08/30 08:23:20;;;;;;;;;2.00;2.00;;;;;22.71;51.64;100543.97;5057110;28;45504;-45
2023/08/30 08:25:45;;;;;;;;;3.00;1.75;;;;;22.59;51.37;100552.91;5057316;28;45528;-46
2023/08/30 08:28:10;;;;;;;;;5.00;3.00;;;;;22.43;51.47;100534.59;5057254;28;45434;-46
2023/08/30 08:30:36;;;;;;;;;1.75;1.75;;;;;22.42;51.67;100551.91;5057060;28;46966;-44
2023/08/30 08:33:01;;;;;;;;;3.00;3.00;;;;;22.12;52.10;100525.63;5057021;28;45379;-44
2023/08/30 08:35:27;;;;;;;;;1.25;1.25;;;;;22.19;51.58;100540.94;5056812;28;45385;-45
2023/08/30 08:37:52;;;;;;;;;6.50;2.25;;;;;22.19;51.27;100551.78;5056868;28;45373;-47
2023/08/30 08:40:17;;;;;;;;;1.75;1.75;;;;;22.24;51.10;100551.91;5055728;28;45330;-46
2023/08/30 08:42:43;;;;;;;;;3.50;3.50;;;;;22.14;50.33;100550.59;5056458;28;45388;-44
2023/08/30 08:45:10;;;;;;;;;2.00;2.00;;;;;22.12;50.61;100551.81;5056803;28;45693;-45
2023/08/30 08:47:36;;;;;;;;;3.00;2.00;;;;;22.46;49.78;100550.41;5057053;28;45641;-43
2023/08/30 08:50:03;;;;;;;;;3.25;3.25;;;;;22.78;48.68;100550.13;5056489;28;46075;-43
2023/08/30 08:52:29;;;;;;;;;2.00;1.60;;;;;22.65;48.82;100551.16;5056413;28;45359;-46
2023/08/30 08:54:55;;;;;;;;;2.50;2.50;;;;;22.41;49.23;100553.75;5056695;28;45454;-47
2023/08/30 08:57:21;;;;;;;;;3.67;2.00;;;;;22.25;49.45;100567.97;5056563;28;45442;-47
2023/08/30 08:59:46;;;;;;;;;2.50;2.00;;;;;22.08;49.96;100556.03;5056079;28;45588;-43
2023/08/30 09:02:14;;;;;;;;;2.00;2.00;;;;;21.99;50.32;100566.34;5055901;28;45277;-44
2023/08/30 09:04:40;;;;;;;;;4.00;3.00;;;;;21.86;50.20;100563.81;5056221;28;45411;-43
2023/08/30 09:07:06;;;;;;;;;2.25;2.00;;;;;21.88;50.54;100561.72;5056579;28;45343;-44
2023/08/30 09:09:33;;;;;;;;;1.00;1.00;;;;;22.36;50.05;100567.19;5054600;28;48049;-42
2023/08/30 09:11:59;;;;;;;;;5.80;4.60;;;;;22.50;49.42;100567.00;5056019;28;45403;-46
2023/08/30 09:14:24;;;;;;;;;2.00;2.00;;;;;22.51;49.00;100561.38;5054733;28;45775;-45
2023/08/30 09:17:01;;;;;;;;;2.75;2.50;;;;;22.75;48.89;100561.44;5055976;28;45332;-45
2023/08/30 09:19:27;;;;;;;;;3.00;3.00;;;;;23.01;47.96;100555.66;5055736;28;46019;-46
2023/08/30 09:21:57;;;;;;;;;1.75;1.75;;;;;23.29;47.40;100565.00;5055014;28;45342;-44
2023/08/30 09:24:24;;;;;;;;;3.40;3.00;;;;;23.14;47.14;100557.31;5055904;28;45429;-44
2023/08/30 09:26:52;;;;;;;;;3.00;2.25;;;;;22.92;47.18;100557.03;5055748;28;45482;-44
2023/08/30 09:29:19;;;;;;;;;2.00;2.00;;;;;22.78;47.20;100556.38;5055345;28;46094;-46
2023/08/30 09:31:45;;;;;;;;;2.00;2.00;;;;;22.86;47.21;100558.75;5055778;28;45268;-46
2023/08/30 09:34:11;;;;;;;;;5.00;2.00;;;;;23.00;46.17;100558.56;5055390;28;45428;-45
2023/08/30 09:36:40;;;;;;;;;2.25;1.75;;;;;23.27;45.83;100561.69;5055687;28;45225;-46
2023/08/30 09:39:10;;;;;;;;;5.00;1.40;;;;;23.93;44.39;100556.94;5054002;28;47934;-44
2023/08/30 09:41:49;;;;;;;;;2.80;2.20;;;;;25.01;43.99;100553.34;5055473;28;45362;-46
2023/08/30 09:44:21;;;;;;;;;2.60;1.60;;;;;25.86;41.36;100549.47;5055537;28;45360;-47
2023/08/30 09:46:53;;;;;;;;;1.80;1.80;;;;;27.46;38.59;100544.53;5056027;28;45399;-45
2023/08/30 09:49:21;;;;;;;;;5.40;3.00;;;;;27.58;37.05;100545.97;5055517;28;47293;-46
2023/08/30 09:51:47;;;;;;;;;3.20;3.20;;;;;28.11;36.33;100526.88;5055819;28;45253;-43
2023/08/30 09:54:20;;;;;;;;;3.80;2.80;;;;;27.83;37.00;100539.03;5055887;28;45486;-44
2023/08/30 09:56:46;;;;;;;;;2.00;1.60;;;;;27.97;36.89;100531.97;5055926;28;45332;-46
2023/08/30 09:59:14;;;;;;;;;1.80;1.80;;;;;29.39;35.31;100537.97;5055472;28;45395;-44
2023/08/30 10:01:40;;;;;;;;;2.80;1.00;;;;;30.57;33.29;100525.44;5055442;28;45332;-46
2023/08/30 10:04:08;;;;;;;;;1.20;1.20;;;;;30.62;32.26;100528.13;5055671;28;45315;-45
2023/08/30 10:06:35;;;;;;;;;3.40;2.00;;;;;32.86;30.08;100522.00;5055770;28;45244;-45
2023/08/30 10:09:03;;;;;;;;;3.80;3.00;;;;;35.78;26.32;100511.63;5055421;28;46402;-46
2023/08/30 10:11:29;;;;;;;;;2.20;1.00;;;;;37.79;23.99;100513.84;5055185;28;45297;-46
2023/08/30 10:13:55;;;;;;;;;2.00;2.00;;;;;39.56;22.00;100525.53;5055460;28;45464;-47
2023/08/30 10:16:24;;;;;;;;;3.00;2.00;;;;;41.29;21.51;100516.31;5055750;28;45582;-44
2023/08/30 10:18:54;;;;;;;;;3.60;1.80;;;;;41.77;19.21;100506.75;5054441;28;45676;-44
2023/08/30 10:21:21;;;;;;;;;2.80;2.80;;;;;40.73;19.54;100514.44;5054109;28;45522;-47
2023/08/30 10:23:51;;;;;;;;;2.00;1.20;;;;;41.24;21.17;100514.59;5055531;28;45386;-47
2023/08/30 10:26:18;;;;;;;;;2.60;2.60;;;;;39.04;20.66;100528.94;5056815;28;45380;-46
2023/08/30 10:28:45;;;;;;;;;1.80;1.80;;;;;36.80;22.05;100527.06;5057867;28;45612;-46
2023/08/30 10:31:10;;;;;;;;;2.20;2.20;;;;;35.76;22.60;100524.16;5058927;28;45465;-42
2023/08/30 10:33:55;;;;;;;;;3.00;2.00;;;;;35.22;24.73;100535.28;5057354;28;45349;-43
2023/08/30 10:36:22;;;;;;;;;2.40;2.20;;;;;36.18;21.71;100537.28;5058726;28;45434;-43
2023/08/30 10:38:54;;;;;;;;;2.00;2.00;;;;;37.21;21.50;100519.00;5058603;28;46158;-43
2023/08/30 10:41:25;;;;;;;;;2.00;2.00;;;;;39.29;20.31;100536.19;5058333;28;45333;-44
2023/08/30 10:43:52;;;;;;;;;1.60;1.60;;;;;39.88;18.91;100521.03;5058768;28;45314;-43
2023/08/30 10:46:31;;;;;;;;;4.40;3.00;;;;;39.40;19.22;100525.41;5059140;28;45893;-45
2023/08/30 10:48:57;;;;;;;;;1.60;1.20;;;;;41.43;17.52;100516.72;5058508;28;45386;-44
2023/08/30 10:51:38;;;;;;;;;6.40;2.00;;;;;43.79;18.46;100524.28;5057722;28;45319;-45
2023/08/30 10:54:14;;;;;;;;;2.20;1.60;;;;;43.39;16.75;100533.22;5058671;28;45351;-46
2023/08/30 10:56:55;;;;;;;;;1.00;1.00;;;;;42.22;18.45;100518.53;5057383;28;45457;-45
2023/08/30 10:59:22;;;;;;;;;3.00;2.40;;;;;41.00;17.67;100511.97;5058485;28;45690;-46
2023/08/30 11:01:49;;;;;;;;;2.00;2.00;;;;;39.61;17.91;100514.16;5058546;28;45340;-47
2023/08/30 11:04:16;;;;;;;;;3.80;3.80;;;;;38.43;18.46;100527.53;5058579;28;45433;-45
2023/08/30 11:06:52;;;;;;;;;4.40;2.40;;;;;37.47;20.30;100529.22;5058464;28;45474;-46
2023/08/30 11:09:19;;;;;;;;;1.00;1.00;;;;;37.21;20.07;100521.78;5058368;28;46238;-47
2023/08/30 11:11:48;;;;;;;;;1.60;1.60;;;;;36.64;20.50;100526.75;5056786;28;45563;-43
2023/08/30 11:14:15;;;;;;;;;1.20;1.20;;;;;38.67;19.09;100512.91;5058448;28;45371;-43
2023/08/30 11:16:41;;;;;;;;;2.00;2.00;;;;;41.21;17.11;100520.91;5058268;28;45324;-46
2023/08/30 11:19:09;;;;;;;;;2.80;2.40;;;;;42.14;17.05;100520.34;5057748;28;46139;-45
2023/08/30 11:21:37;;;;;;;;;3.20;3.20;;;;;40.90;18.04;100513.28;5056502;28;45894;-49